Disclaimer

Please do not use the information listed here in-flight or in-navigation, as they are not provided to us by the airports but are provided by volunteers, so they might be outdated.

Search


Regions


Airport information page

No radio frequency information is available.

Airport informations:
Latitude: 33° 59' 05.71" S
Longitude: 025° 37' 02.19" E
Elevation: 226 feet - 69 meters
Operating hours: Remarks
Operating agency: Civil government, landing fees and diplomatic clearance may be required
Timezone: UTC+2
Fuel: Jet A1, without icing nhibitor.

100/130 MIL Spec, low lead, aviation gasoline (BLUE)

Runway information:
08/26 - 6496 x 151 feet< - >1980 x 46 meters
10/28 - 3865 x 59 feet< - >1178 x 18 meters
17/35 - 5502 x 151 feet< - >1677 x 46 meters

Recent METARs:
FAPE 130300Z 25007KT CAVOK 17/14 Q1019 NOSIG
FAPE 130400Z 26006KT CAVOK 18/14 Q1019 NOSIG
FAPE 130400Z 26006KT CAVOK 18/14 Q1019 NOSIG

Airport on the map: